createdAt,value
2019-03-12T01:33:15.637Z,4.20
2019-03-12T01:35:44.635Z,4.10
2019-03-12T01:38:13.617Z,4.10
2019-03-12T01:40:42.689Z,4.20
2019-03-12T01:43:11.660Z,4.10
2019-03-12T01:45:40.668Z,4.20
2019-03-12T01:48:09.702Z,4.20
2019-03-12T01:50:38.964Z,4.20
2019-03-12T01:53:07.904Z,4.20
2019-03-12T01:55:36.950Z,4.20
2019-03-12T01:58:05.957Z,4.20
2019-03-12T02:00:35.051Z,4.20
2019-03-12T02:03:04.408Z,4.30
2019-03-12T02:05:33.515Z,4.20
2019-03-12T02:08:02.629Z,4.20
2019-03-12T02:10:31.741Z,4.10
2019-03-12T02:13:00.729Z,4.00
2019-03-12T02:17:58.326Z,4.00
2019-03-12T02:20:27.337Z,4.10
2019-03-12T02:22:56.216Z,4.10
2019-03-12T02:25:25.289Z,4.10
2019-03-12T02:27:54.321Z,4.10
2019-03-12T02:30:23.513Z,4.20
2019-03-12T02:35:20.975Z,4.00
2019-03-12T02:37:49.867Z,4.00
2019-03-12T02:40:19.018Z,4.00
2019-03-12T02:45:16.554Z,4.00
2019-03-12T02:47:45.441Z,3.90
2019-03-12T02:52:43.125Z,3.80
2019-03-12T02:55:12.081Z,3.90
2019-03-12T02:57:41.122Z,3.80
2019-03-12T03:00:16.373Z,3.80
2019-03-12T03:02:45.408Z,3.80
2019-03-12T03:05:14.674Z,3.80
2019-03-12T03:07:49.998Z,3.70
2019-03-12T03:10:19.215Z,3.70
2019-03-12T03:12:48.227Z,3.70
2019-03-12T03:15:20.420Z,3.60
2019-03-12T03:20:17.901Z,3.60
2019-03-12T03:22:46.926Z,3.60
2019-03-12T03:25:15.844Z,3.60
2019-03-12T03:27:44.904Z,3.50
2019-03-12T03:30:18.095Z,3.60
2019-03-12T03:32:47.167Z,3.50
2019-03-12T03:35:16.421Z,3.50
2019-03-12T03:37:45.291Z,3.60
2019-03-12T03:40:18.725Z,3.50
2019-03-12T03:42:47.710Z,3.50
2019-03-12T03:45:16.918Z,3.40
2019-03-12T03:47:45.900Z,3.40
2019-03-12T03:50:14.980Z,3.40
2019-03-12T03:52:43.965Z,3.40
2019-03-12T03:55:14.901Z,3.40
2019-03-12T03:57:43.949Z,3.40
2019-03-12T04:02:45.508Z,3.50
2019-03-12T04:05:14.519Z,3.50
2019-03-12T04:07:43.503Z,3.50
2019-03-12T04:10:12.738Z,3.50
2019-03-12T04:12:41.792Z,3.50
2019-03-12T04:15:11.227Z,3.50
2019-03-12T04:17:40.258Z,3.40
2019-03-12T04:20:09.427Z,3.40
2019-03-12T04:22:38.503Z,3.40
2019-03-12T04:25:07.914Z,3.40
2019-03-12T04:27:36.963Z,3.40
2019-03-12T04:30:07.438Z,3.40
2019-03-12T04:32:36.564Z,3.40
2019-03-12T04:35:06.448Z,3.40
2019-03-12T04:37:35.516Z,3.30
2019-03-12T04:40:06.135Z,3.20
2019-03-12T04:42:35.097Z,3.10
2019-03-12T04:45:04.099Z,3.00
2019-03-12T04:47:33.237Z,3.10
2019-03-12T04:50:02.306Z,3.00
2019-03-12T04:52:31.329Z,3.00
2019-03-12T04:55:00.367Z,2.90
2019-03-12T04:57:29.348Z,2.80
2019-03-12T04:59:58.467Z,2.80
2019-03-12T05:02:27.505Z,2.80
2019-03-12T05:04:56.482Z,2.70
2019-03-12T05:07:25.517Z,2.70
2019-03-12T05:09:54.472Z,2.60
2019-03-12T05:12:23.615Z,2.60
2019-03-12T05:14:52.667Z,2.60
2019-03-12T05:17:28.920Z,2.60
2019-03-12T05:19:57.941Z,2.50
2019-03-12T05:22:26.858Z,2.50
2019-03-12T05:24:55.834Z,2.60
2019-03-12T05:27:25.158Z,2.60
2019-03-12T05:29:54.107Z,2.60
2019-03-12T05:32:23.187Z,2.70
2019-03-12T05:34:52.905Z,2.70
2019-03-12T05:37:22.038Z,2.70
2019-03-12T05:39:51.097Z,2.60
2019-03-12T05:44:48.753Z,2.60
2019-03-12T05:47:17.761Z,2.50
2019-03-12T05:49:46.776Z,2.60
2019-03-12T05:52:16.036Z,2.60
2019-03-12T05:57:13.512Z,2.60
2019-03-12T06:02:11.137Z,3.00
2019-03-12T06:07:08.745Z,3.60
2019-03-12T06:09:37.720Z,3.80
2019-03-12T06:12:06.866Z,4.20
2019-03-12T06:14:35.929Z,4.50
2019-03-12T06:17:04.890Z,4.70
2019-03-12T06:19:33.931Z,4.90
2019-03-12T06:22:02.880Z,5.00
2019-03-12T06:24:32.027Z,4.90
2019-03-12T06:27:01.096Z,4.30
2019-03-12T06:29:30.067Z,4.40
2019-03-12T06:32:16.305Z,4.50
2019-03-12T06:35:02.791Z,4.20
2019-03-12T06:37:50.785Z,4.60
2019-03-12T06:40:37.369Z,5.30
2019-03-12T06:43:20.395Z,4.80
2019-03-12T06:46:23.598Z,4.20
2019-03-12T06:49:03.317Z,3.30
2019-03-12T06:51:43.409Z,3.20
2019-03-12T06:54:31.897Z,3.20
2019-03-12T06:57:13.028Z,3.20
2019-03-12T07:00:07.114Z,3.30
2019-03-12T07:02:55.134Z,3.60
2019-03-12T07:05:55.185Z,4.60
2019-03-12T07:08:47.849Z,4.80
2019-03-12T07:11:34.708Z,4.40
2019-03-12T07:17:10.211Z,4.90
2019-03-12T07:19:56.889Z,5.30
2019-03-12T07:22:43.734Z,4.90
2019-03-12T07:25:31.768Z,4.80
2019-03-12T07:31:13.938Z,5.50
2019-03-12T17:07:49.720Z,10.00
2019-03-12T19:36:19.958Z,9.30
2019-03-12T19:38:49.021Z,9.20
2019-03-12T19:43:46.686Z,9.30
2019-03-12T19:46:15.729Z,9.30
2019-03-12T19:48:44.788Z,9.20
2019-03-12T19:53:42.662Z,9.20
2019-03-12T19:56:12.011Z,9.20
2019-03-12T19:58:41.730Z,9.30
2019-03-12T20:01:10.956Z,9.20
2019-03-12T20:06:08.713Z,9.20
2019-03-12T20:08:37.785Z,9.30
2019-03-12T20:14:21.511Z,9.30
2019-03-12T20:17:24.591Z,9.30
2019-03-12T20:23:55.117Z,9.30
2019-03-12T20:27:04.476Z,9.30
2019-03-12T20:32:49.046Z,9.20
2019-03-12T20:35:55.734Z,9.20
2019-03-12T20:39:14.474Z,9.10
2019-03-12T20:45:16.946Z,9.30
2019-03-12T20:48:23.708Z,9.20
2019-03-12T20:51:29.294Z,9.20
2019-03-12T20:54:36.675Z,9.20
2019-03-12T20:57:55.736Z,9.20
2019-03-12T21:01:00.315Z,9.20
2019-03-12T21:04:05.873Z,9.20
2019-03-12T21:07:30.004Z,9.10
2019-03-12T21:10:48.339Z,9.20
2019-03-12T21:13:58.636Z,9.20
2019-03-12T21:16:52.557Z,9.20
2019-03-12T21:19:57.582Z,9.10
2019-03-12T21:23:17.034Z,9.10
2019-03-12T21:26:24.507Z,9.10
2019-03-12T21:31:57.398Z,9.10
2019-03-12T21:36:55.131Z,8.70
2019-03-12T21:41:52.843Z,8.80
2019-03-12T21:44:22.040Z,8.80
2019-03-12T21:51:48.501Z,8.80
2019-03-12T21:54:17.662Z,8.90
2019-03-12T21:56:46.804Z,9.10
2019-03-12T21:59:15.863Z,9.10
2019-03-12T22:01:44.993Z,9.20
2019-03-12T22:06:42.769Z,8.90
2019-03-12T22:09:11.790Z,9.10
2019-03-12T22:14:09.491Z,9.20
2019-03-12T22:16:38.711Z,9.30
2019-03-12T22:19:07.781Z,9.30
2019-03-12T22:21:57.774Z,9.40
2019-03-12T22:24:26.845Z,9.50
2019-03-12T22:26:55.861Z,9.50
2019-03-12T22:29:24.910Z,9.60
2019-03-12T22:34:22.533Z,9.70
2019-03-12T22:41:48.802Z,9.90
2019-03-12T22:44:18.216Z,10.00
2019-03-12T22:46:47.403Z,10.00
2019-03-12T22:49:16.521Z,10.00
2019-03-12T22:51:45.598Z,10.10
2019-03-12T22:54:14.696Z,10.20
2019-03-12T22:56:43.770Z,10.40
2019-03-12T22:59:12.821Z,10.40
2019-03-12T23:01:41.815Z,10.50
2019-03-12T23:06:39.623Z,10.50
2019-03-12T23:09:08.636Z,10.60
2019-03-12T23:11:37.701Z,10.60
2019-03-12T23:14:06.744Z,10.60
2019-03-12T23:16:35.644Z,10.60
2019-03-12T23:19:04.703Z,10.60
2019-03-12T23:21:33.760Z,10.50
2019-03-12T23:26:31.433Z,10.50
2019-03-12T23:29:00.398Z,10.50
2019-03-12T23:31:29.471Z,10.50
2019-03-12T23:33:58.578Z,10.40
2019-03-12T23:38:56.245Z,10.50
2019-03-12T23:41:25.321Z,10.50
2019-03-12T23:47:18.576Z,10.70
2019-03-12T23:49:48.213Z,10.70
2019-03-12T23:52:17.803Z,10.80
2019-03-12T23:54:47.668Z,10.80
2019-03-12T23:57:18.130Z,10.70
